sensor_id;sensor_type;location;lat;lon;timestamp;temperature;humidity
4209;DHT22;36320;48.860;2.380;2023-04-15T00:00:06;13.60;81.60
4209;DHT22;36320;48.860;2.380;2023-04-15T00:02:33;13.60;81.50
4209;DHT22;36320;48.860;2.380;2023-04-15T00:04:58;13.60;81.60
4209;DHT22;36320;48.860;2.380;2023-04-15T00:07:24;13.60;81.60
4209;DHT22;36320;48.860;2.380;2023-04-15T00:09:53;13.70;81.70
4209;DHT22;36320;48.860;2.380;2023-04-15T00:12:22;13.60;81.60
4209;DHT22;36320;48.860;2.380;2023-04-15T00:14:48;13.60;81.60
4209;DHT22;36320;48.860;2.380;2023-04-15T00:17:14;13.60;81.50
4209;DHT22;36320;48.860;2.380;2023-04-15T00:19:40;13.60;81.60
4209;DHT22;36320;48.860;2.380;2023-04-15T00:22:07;13.60;81.60
4209;DHT22;36320;48.860;2.380;2023-04-15T00:24:33;13.60;81.70
4209;DHT22;36320;48.860;2.380;2023-04-15T00:26:59;13.50;81.70
4209;DHT22;36320;48.860;2.380;2023-04-15T00:29:25;13.50;81.70
4209;DHT22;36320;48.860;2.380;2023-04-15T00:31:53;13.50;81.80
4209;DHT22;36320;48.860;2.380;2023-04-15T00:34:19;13.70;81.90
4209;DHT22;36320;48.860;2.380;2023-04-15T00:36:45;13.50;81.80
4209;DHT22;36320;48.860;2.380;2023-04-15T00:39:11;13.50;81.90
4209;DHT22;36320;48.860;2.380;2023-04-15T00:41:37;13.60;82.00
4209;DHT22;36320;48.860;2.380;2023-04-15T00:44:06;13.60;82.10
4209;DHT22;36320;48.860;2.380;2023-04-15T00:46:35;13.60;82.10
4209;DHT22;36320;48.860;2.380;2023-04-15T00:49:08;13.50;82.00
4209;DHT22;36320;48.860;2.380;2023-04-15T00:51:34;13.50;82.10
4209;DHT22;36320;48.860;2.380;2023-04-15T00:54:05;13.50;82.10
4209;DHT22;36320;48.860;2.380;2023-04-15T00:56:36;13.50;82.80
4209;DHT22;36320;48.860;2.380;2023-04-15T00:59:06;13.60;82.00
4209;DHT22;36320;48.860;2.380;2023-04-15T01:01:34;13.40;82.10
4209;DHT22;36320;48.860;2.380;2023-04-15T01:04:00;13.20;82.50
4209;DHT22;36320;48.860;2.380;2023-04-15T01:06:26;13.20;83.00
4209;DHT22;36320;48.860;2.380;2023-04-15T01:08:53;13.30;83.00
4209;DHT22;36320;48.860;2.380;2023-04-15T01:11:19;13.40;83.20
4209;DHT22;36320;48.860;2.380;2023-04-15T01:13:45;13.40;83.40
4209;DHT22;36320;48.860;2.380;2023-04-15T01:16:11;13.50;83.50
4209;DHT22;36320;48.860;2.380;2023-04-15T01:18:38;13.50;83.80
4209;DHT22;36320;48.860;2.380;2023-04-15T01:21:05;13.50;84.00
4209;DHT22;36320;48.860;2.380;2023-04-15T01:23:35;13.50;84.30
4209;DHT22;36320;48.860;2.380;2023-04-15T01:26:02;13.50;84.40
4209;DHT22;36320;48.860;2.380;2023-04-15T01:28:31;13.50;84.60
4209;DHT22;36320;48.860;2.380;2023-04-15T01:31:11;13.60;84.80
4209;DHT22;36320;48.860;2.380;2023-04-15T01:33:42;13.50;85.40
4209;DHT22;36320;48.860;2.380;2023-04-15T01:36:09;13.50;85.30
4209;DHT22;36320;48.860;2.380;2023-04-15T01:38:36;13.60;85.60
4209;DHT22;36320;48.860;2.380;2023-04-15T01:41:01;13.50;85.60
4209;DHT22;36320;48.860;2.380;2023-04-15T01:43:30;13.10;85.30
4209;DHT22;36320;48.860;2.380;2023-04-15T01:45:56;13.50;86.10
4209;DHT22;36320;48.860;2.380;2023-04-15T01:48:22;13.50;86.10
4209;DHT22;36320;48.860;2.380;2023-04-15T01:50:48;13.60;86.30
4209;DHT22;36320;48.860;2.380;2023-04-15T01:53:14;13.50;86.30
4209;DHT22;36320;48.860;2.380;2023-04-15T01:55:40;13.50;86.50
4209;DHT22;36320;48.860;2.380;2023-04-15T01:58:06;13.50;86.50
4209;DHT22;36320;48.860;2.380;2023-04-15T02:00:32;13.60;86.60
4209;DHT22;36320;48.860;2.380;2023-04-15T02:02:58;13.80;87.00
4209;DHT22;36320;48.860;2.380;2023-04-15T02:05:24;13.70;87.00
4209;DHT22;36320;48.860;2.380;2023-04-15T02:07:53;13.70;87.10
4209;DHT22;36320;48.860;2.380;2023-04-15T02:10:18;13.70;87.20
4209;DHT22;36320;48.860;2.380;2023-04-15T02:12:46;13.60;87.40
4209;DHT22;36320;48.860;2.380;2023-04-15T02:15:11;13.60;87.50
4209;DHT22;36320;48.860;2.380;2023-04-15T02:17:47;13.50;87.30
4209;DHT22;36320;48.860;2.380;2023-04-15T02:20:19;13.90;88.10
4209;DHT22;36320;48.860;2.380;2023-04-15T02:22:46;13.70;87.90
4209;DHT22;36320;48.860;2.380;2023-04-15T02:25:13;13.20;87.60
4209;DHT22;36320;48.860;2.380;2023-04-15T02:27:40;12.90;88.10
4209;DHT22;36320;48.860;2.380;2023-04-15T02:30:16;12.90;88.70
4209;DHT22;36320;48.860;2.380;2023-04-15T02:32:42;12.80;88.60
4209;DHT22;36320;48.860;2.380;2023-04-15T02:35:16;12.90;88.90
4209;DHT22;36320;48.860;2.380;2023-04-15T02:37:44;13.10;88.60
4209;DHT22;36320;48.860;2.380;2023-04-15T02:40:11;13.30;88.40
4209;DHT22;36320;48.860;2.380;2023-04-15T02:42:42;13.20;88.30
4209;DHT22;36320;48.860;2.380;2023-04-15T02:45:09;13.20;88.50
4209;DHT22;36320;48.860;2.380;2023-04-15T02:47:36;13.30;88.60
4209;DHT22;36320;48.860;2.380;2023-04-15T02:50:06;13.50;88.60
4209;DHT22;36320;48.860;2.380;2023-04-15T02:52:33;13.70;88.60
4209;DHT22;36320;48.860;2.380;2023-04-15T02:54:59;13.40;88.50
4209;DHT22;36320;48.860;2.380;2023-04-15T02:57:29;13.20;88.60
4209;DHT22;36320;48.860;2.380;2023-04-15T02:59:55;13.10;88.70
4209;DHT22;36320;48.860;2.380;2023-04-15T03:02:24;13.00;89.30
4209;DHT22;36320;48.860;2.380;2023-04-15T03:04:51;13.00;89.30
4209;DHT22;36320;48.860;2.380;2023-04-15T03:07:17;12.90;89.30
4209;DHT22;36320;48.860;2.380;2023-04-15T03:09:43;13.10;89.60
4209;DHT22;36320;48.860;2.380;2023-04-15T03:12:11;13.00;89.50
4209;DHT22;36320;48.860;2.380;2023-04-15T03:14:37;12.90;89.80
4209;DHT22;36320;48.860;2.380;2023-04-15T03:17:02;12.80;90.00
4209;DHT22;36320;48.860;2.380;2023-04-15T03:19:28;12.70;90.20
4209;DHT22;36320;48.860;2.380;2023-04-15T03:21:55;12.60;90.20
4209;DHT22;36320;48.860;2.380;2023-04-15T03:24:21;12.60;90.30
4209;DHT22;36320;48.860;2.380;2023-04-15T03:26:47;12.60;90.40
4209;DHT22;36320;48.860;2.380;2023-04-15T03:29:14;12.50;90.50
4209;DHT22;36320;48.860;2.380;2023-04-15T03:31:40;12.40;90.60
4209;DHT22;36320;48.860;2.380;2023-04-15T03:34:06;12.60;90.70
4209;DHT22;36320;48.860;2.380;2023-04-15T03:36:32;12.70;90.50
4209;DHT22;36320;48.860;2.380;2023-04-15T03:38:58;12.80;90.50
4209;DHT22;36320;48.860;2.380;2023-04-15T03:41:23;12.80;90.50
4209;DHT22;36320;48.860;2.380;2023-04-15T03:43:49;12.80;90.50
4209;DHT22;36320;48.860;2.380;2023-04-15T03:46:17;11.90;90.00
4209;DHT22;36320;48.860;2.380;2023-04-15T03:48:43;12.60;90.40
4209;DHT22;36320;48.860;2.380;2023-04-15T03:51:09;12.50;90.50
4209;DHT22;36320;48.860;2.380;2023-04-15T03:53:36;12.50;90.40
4209;DHT22;36320;48.860;2.380;2023-04-15T03:56:01;12.40;90.40
4209;DHT22;36320;48.860;2.380;2023-04-15T03:58:27;12.40;90.30
4209;DHT22;36320;48.860;2.380;2023-04-15T04:00:53;12.40;90.30
4209;DHT22;36320;48.860;2.380;2023-04-15T04:03:19;12.20;90.10
4209;DHT22;36320;48.860;2.380;2023-04-15T04:05:45;12.20;90.20
4209;DHT22;36320;48.860;2.380;2023-04-15T04:08:11;12.10;90.10
4209;DHT22;36320;48.860;2.380;2023-04-15T04:10:38;12.20;90.10
4209;DHT22;36320;48.860;2.380;2023-04-15T04:13:04;12.20;90.00
4209;DHT22;36320;48.860;2.380;2023-04-15T04:15:30;12.30;90.10
4209;DHT22;36320;48.860;2.380;2023-04-15T04:17:56;12.20;89.50
4209;DHT22;36320;48.860;2.380;2023-04-15T04:20:22;12.30;90.00
4209;DHT22;36320;48.860;2.380;2023-04-15T04:22:49;12.30;89.90
4209;DHT22;36320;48.860;2.380;2023-04-15T04:25:16;12.30;89.60
4209;DHT22;36320;48.860;2.380;2023-04-15T04:27:42;12.20;89.60
4209;DHT22;36320;48.860;2.380;2023-04-15T04:30:08;12.10;89.70
4209;DHT22;36320;48.860;2.380;2023-04-15T04:32:33;12.20;89.80
4209;DHT22;36320;48.860;2.380;2023-04-15T04:34:59;12.30;89.60
4209;DHT22;36320;48.860;2.380;2023-04-15T04:37:25;12.30;89.80
4209;DHT22;36320;48.860;2.380;2023-04-15T04:39:51;12.60;90.00
4209;DHT22;36320;48.860;2.380;2023-04-15T04:42:17;12.20;89.70
4209;DHT22;36320;48.860;2.380;2023-04-15T04:44:42;12.20;89.50
4209;DHT22;36320;48.860;2.380;2023-04-15T04:47:08;12.10;89.80
4209;DHT22;36320;48.860;2.380;2023-04-15T04:49:34;12.10;89.60
4209;DHT22;36320;48.860;2.380;2023-04-15T04:52:01;12.10;89.60
4209;DHT22;36320;48.860;2.380;2023-04-15T04:54:26;12.00;89.60
4209;DHT22;36320;48.860;2.380;2023-04-15T04:56:52;12.00;89.60
4209;DHT22;36320;48.860;2.380;2023-04-15T04:59:19;12.00;89.50
4209;DHT22;36320;48.860;2.380;2023-04-15T05:01:44;12.00;89.50
4209;DHT22;36320;48.860;2.380;2023-04-15T05:04:11;12.00;89.90
4209;DHT22;36320;48.860;2.380;2023-04-15T05:06:36;12.10;89.80
4209;DHT22;36320;48.860;2.380;2023-04-15T05:09:02;12.20;89.30
4209;DHT22;36320;48.860;2.380;2023-04-15T05:11:28;12.20;89.20
4209;DHT22;36320;48.860;2.380;2023-04-15T05:13:54;12.10;89.30
4209;DHT22;36320;48.860;2.380;2023-04-15T05:16:20;12.00;89.20
4209;DHT22;36320;48.860;2.380;2023-04-15T05:18:46;11.90;88.90
4209;DHT22;36320;48.860;2.380;2023-04-15T05:21:12;11.80;89.10
4209;DHT22;36320;48.860;2.380;2023-04-15T05:23:38;11.80;89.30
4209;DHT22;36320;48.860;2.380;2023-04-15T05:26:04;11.80;89.10
4209;DHT22;36320;48.860;2.380;2023-04-15T05:28:30;11.70;89.30
4209;DHT22;36320;48.860;2.380;2023-04-15T05:30:55;11.70;89.30
4209;DHT22;36320;48.860;2.380;2023-04-15T05:33:22;11.70;89.00
4209;DHT22;36320;48.860;2.380;2023-04-15T05:35:47;11.60;89.80
4209;DHT22;36320;48.860;2.380;2023-04-15T05:38:13;11.60;89.20
4209;DHT22;36320;48.860;2.380;2023-04-15T05:40:39;11.40;89.10
4209;DHT22;36320;48.860;2.380;2023-04-15T05:43:06;11.40;89.40
4209;DHT22;36320;48.860;2.380;2023-04-15T05:45:31;11.50;89.50
4209;DHT22;36320;48.860;2.380;2023-04-15T05:47:57;11.60;89.80
4209;DHT22;36320;48.860;2.380;2023-04-15T05:50:23;11.60;89.30
4209;DHT22;36320;48.860;2.380;2023-04-15T05:52:49;11.70;89.40
4209;DHT22;36320;48.860;2.380;2023-04-15T05:55:16;11.80;89.40
4209;DHT22;36320;48.860;2.380;2023-04-15T05:57:42;12.00;89.50
4209;DHT22;36320;48.860;2.380;2023-04-15T06:00:08;11.90;89.30
4209;DHT22;36320;48.860;2.380;2023-04-15T06:02:34;11.70;89.30
4209;DHT22;36320;48.860;2.380;2023-04-15T06:05:00;11.70;89.70
4209;DHT22;36320;48.860;2.380;2023-04-15T06:07:26;11.80;89.60
4209;DHT22;36320;48.860;2.380;2023-04-15T06:09:52;11.80;89.40
4209;DHT22;36320;48.860;2.380;2023-04-15T06:12:19;11.80;89.80
4209;DHT22;36320;48.860;2.380;2023-04-15T06:14:45;11.80;89.70
4209;DHT22;36320;48.860;2.380;2023-04-15T06:17:11;11.80;89.70
4209;DHT22;36320;48.860;2.380;2023-04-15T06:19:39;11.80;89.70
4209;DHT22;36320;48.860;2.380;2023-04-15T06:22:05;11.80;89.80
4209;DHT22;36320;48.860;2.380;2023-04-15T06:24:31;11.80;89.80
4209;DHT22;36320;48.860;2.380;2023-04-15T06:26:57;11.80;89.90
4209;DHT22;36320;48.860;2.380;2023-04-15T06:29:23;11.90;89.70
4209;DHT22;36320;48.860;2.380;2023-04-15T06:31:49;12.10;90.00
4209;DHT22;36320;48.860;2.380;2023-04-15T06:34:15;12.10;89.80
4209;DHT22;36320;48.860;2.380;2023-04-15T06:36:41;12.20;89.60
4209;DHT22;36320;48.860;2.380;2023-04-15T06:39:07;12.20;89.40
4209;DHT22;36320;48.860;2.380;2023-04-15T06:41:33;12.00;89.50
4209;DHT22;36320;48.860;2.380;2023-04-15T06:43:59;12.10;89.60
4209;DHT22;36320;48.860;2.380;2023-04-15T06:46:25;12.20;89.70
4209;DHT22;36320;48.860;2.380;2023-04-15T06:48:51;12.30;89.30
4209;DHT22;36320;48.860;2.380;2023-04-15T06:51:18;12.40;89.40
4209;DHT22;36320;48.860;2.380;2023-04-15T06:53:44;12.00;89.10
4209;DHT22;36320;48.860;2.380;2023-04-15T06:56:10;12.00;89.60
4209;DHT22;36320;48.860;2.380;2023-04-15T06:58:37;12.20;89.20
4209;DHT22;36320;48.860;2.380;2023-04-15T07:01:06;12.00;89.10
4209;DHT22;36320;48.860;2.380;2023-04-15T07:03:31;11.90;89.30
4209;DHT22;36320;48.860;2.380;2023-04-15T07:05:57;12.00;89.40
4209;DHT22;36320;48.860;2.380;2023-04-15T07:08:23;11.80;89.70
4209;DHT22;36320;48.860;2.380;2023-04-15T07:10:49;11.90;89.80
4209;DHT22;36320;48.860;2.380;2023-04-15T07:13:16;11.90;89.90
4209;DHT22;36320;48.860;2.380;2023-04-15T07:15:44;11.90;90.00
4209;DHT22;36320;48.860;2.380;2023-04-15T07:18:10;12.00;89.80
4209;DHT22;36320;48.860;2.380;2023-04-15T07:20:36;12.10;89.80
4209;DHT22;36320;48.860;2.380;2023-04-15T07:23:03;12.00;89.80
4209;DHT22;36320;48.860;2.380;2023-04-15T07:25:29;12.00;90.00
4209;DHT22;36320;48.860;2.380;2023-04-15T07:27:55;12.10;90.20
4209;DHT22;36320;48.860;2.380;2023-04-15T07:30:22;12.10;90.10
4209;DHT22;36320;48.860;2.380;2023-04-15T07:32:48;12.20;90.00
4209;DHT22;36320;48.860;2.380;2023-04-15T07:35:13;12.40;90.00
4209;DHT22;36320;48.860;2.380;2023-04-15T07:37:39;12.60;89.80
4209;DHT22;36320;48.860;2.380;2023-04-15T07:40:08;12.50;89.50
4209;DHT22;36320;48.860;2.380;2023-04-15T07:42:34;12.60;89.50
4209;DHT22;36320;48.860;2.380;2023-04-15T07:45:00;13.10;89.80
4209;DHT22;36320;48.860;2.380;2023-04-15T07:47:26;12.60;89.30
4209;DHT22;36320;48.860;2.380;2023-04-15T07:49:55;12.70;89.10
4209;DHT22;36320;48.860;2.380;2023-04-15T07:52:23;12.80;89.00
4209;DHT22;36320;48.860;2.380;2023-04-15T07:54:49;12.80;88.80
4209;DHT22;36320;48.860;2.380;2023-04-15T07:57:15;12.80;88.60
4209;DHT22;36320;48.860;2.380;2023-04-15T07:59:42;12.90;88.40
4209;DHT22;36320;48.860;2.380;2023-04-15T08:02:08;12.90;88.00
4209;DHT22;36320;48.860;2.380;2023-04-15T08:04:35;13.00;87.50
4209;DHT22;36320;48.860;2.380;2023-04-15T08:07:02;13.10;87.50
4209;DHT22;36320;48.860;2.380;2023-04-15T08:09:28;13.00;87.20
4209;DHT22;36320;48.860;2.380;2023-04-15T08:11:53;13.10;87.00
4209;DHT22;36320;48.860;2.380;2023-04-15T08:14:19;13.10;86.30
4209;DHT22;36320;48.860;2.380;2023-04-15T08:16:45;13.20;86.10
4209;DHT22;36320;48.860;2.380;2023-04-15T08:19:11;13.20;85.70
4209;DHT22;36320;48.860;2.380;2023-04-15T08:21:37;13.20;85.10
4209;DHT22;36320;48.860;2.380;2023-04-15T08:24:02;13.30;85.10
4209;DHT22;36320;48.860;2.380;2023-04-15T08:26:28;13.40;85.20
4209;DHT22;36320;48.860;2.380;2023-04-15T08:28:54;13.50;84.40
4209;DHT22;36320;48.860;2.380;2023-04-15T08:31:21;13.40;84.00
4209;DHT22;36320;48.860;2.380;2023-04-15T08:33:47;13.50;83.90
4209;DHT22;36320;48.860;2.380;2023-04-15T08:36:12;13.60;83.70
4209;DHT22;36320;48.860;2.380;2023-04-15T08:38:38;13.50;83.30
4209;DHT22;36320;48.860;2.380;2023-04-15T08:41:10;13.30;83.10
4209;DHT22;36320;48.860;2.380;2023-04-15T08:43:45;13.10;83.50
4209;DHT22;36320;48.860;2.380;2023-04-15T08:46:13;13.20;83.60
4209;DHT22;36320;48.860;2.380;2023-04-15T08:48:41;13.20;83.90
4209;DHT22;36320;48.860;2.380;2023-04-15T08:51:08;13.20;83.60
4209;DHT22;36320;48.860;2.380;2023-04-15T08:53:35;13.30;83.50
4209;DHT22;36320;48.860;2.380;2023-04-15T08:56:03;13.20;83.00
4209;DHT22;36320;48.860;2.380;2023-04-15T08:58:30;13.20;83.90
4209;DHT22;36320;48.860;2.380;2023-04-15T09:00:57;13.40;84.00
4209;DHT22;36320;48.860;2.380;2023-04-15T09:03:23;12.80;82.60
4209;DHT22;36320;48.860;2.380;2023-04-15T09:05:49;13.60;83.40
4209;DHT22;36320;48.860;2.380;2023-04-15T09:08:15;13.90;83.30
4209;DHT22;36320;48.860;2.380;2023-04-15T09:10:42;14.00;82.70
4209;DHT22;36320;48.860;2.380;2023-04-15T09:13:08;14.10;82.20
4209;DHT22;36320;48.860;2.380;2023-04-15T09:15:37;14.10;81.70
4209;DHT22;36320;48.860;2.380;2023-04-15T09:18:04;14.30;82.00
4209;DHT22;36320;48.860;2.380;2023-04-15T09:20:39;14.70;81.50
4209;DHT22;36320;48.860;2.380;2023-04-15T09:23:12;14.90;80.90
4209;DHT22;36320;48.860;2.380;2023-04-15T09:25:39;14.90;79.90
4209;DHT22;36320;48.860;2.380;2023-04-15T09:28:07;14.90;79.50
4209;DHT22;36320;48.860;2.380;2023-04-15T09:30:33;15.00;79.00
4209;DHT22;36320;48.860;2.380;2023-04-15T09:33:01;15.30;78.50
4209;DHT22;36320;48.860;2.380;2023-04-15T09:35:27;15.10;77.80
4209;DHT22;36320;48.860;2.380;2023-04-15T09:38:03;15.00;77.80
4209;DHT22;36320;48.860;2.380;2023-04-15T09:40:40;14.90;77.80
4209;DHT22;36320;48.860;2.380;2023-04-15T09:43:08;13.90;77.10
4209;DHT22;36320;48.860;2.380;2023-04-15T09:45:35;14.50;78.10
4209;DHT22;36320;48.860;2.380;2023-04-15T09:48:24;14.50;78.40
4209;DHT22;36320;48.860;2.380;2023-04-15T09:50:59;14.60;78.70
4209;DHT22;36320;48.860;2.380;2023-04-15T09:53:26;14.50;78.30
4209;DHT22;36320;48.860;2.380;2023-04-15T09:58:33;14.40;78.10
4209;DHT22;36320;48.860;2.380;2023-04-15T10:01:02;14.60;78.30
4209;DHT22;36320;48.860;2.380;2023-04-15T10:03:30;14.30;78.00
4209;DHT22;36320;48.860;2.380;2023-04-15T10:06:00;14.10;77.70
4209;DHT22;36320;48.860;2.380;2023-04-15T10:08:28;14.10;78.10
4209;DHT22;36320;48.860;2.380;2023-04-15T10:10:54;13.90;79.10
4209;DHT22;36320;48.860;2.380;2023-04-15T10:13:25;13.90;78.50
4209;DHT22;36320;48.860;2.380;2023-04-15T10:16:24;14.00;79.00
4209;DHT22;36320;48.860;2.380;2023-04-15T10:18:54;14.20;78.90
4209;DHT22;36320;48.860;2.380;2023-04-15T10:21:24;14.50;78.90
4209;DHT22;36320;48.860;2.380;2023-04-15T10:23:52;14.70;78.40
4209;DHT22;36320;48.860;2.380;2023-04-15T10:26:17;14.70;77.70
4209;DHT22;36320;48.860;2.380;2023-04-15T10:28:45;14.70;77.30
4209;DHT22;36320;48.860;2.380;2023-04-15T10:31:16;14.90;76.90
4209;DHT22;36320;48.860;2.380;2023-04-15T10:33:43;15.50;76.60
4209;DHT22;36320;48.860;2.380;2023-04-15T10:36:10;15.70;75.60
4209;DHT22;36320;48.860;2.380;2023-04-15T10:38:41;15.60;75.10
4209;DHT22;36320;48.860;2.380;2023-04-15T10:41:26;15.70;74.90
4209;DHT22;36320;48.860;2.380;2023-04-15T10:44:00;15.80;74.40
4209;DHT22;36320;48.860;2.380;2023-04-15T10:46:42;15.60;73.30
4209;DHT22;36320;48.860;2.380;2023-04-15T10:49:10;15.30;73.80
4209;DHT22;36320;48.860;2.380;2023-04-15T10:51:38;15.60;74.40
4209;DHT22;36320;48.860;2.380;2023-04-15T10:54:16;15.40;73.40
4209;DHT22;36320;48.860;2.380;2023-04-15T10:56:45;14.90;73.00
4209;DHT22;36320;48.860;2.380;2023-04-15T10:59:15;14.80;74.00
4209;DHT22;36320;48.860;2.380;2023-04-15T11:01:55;15.00;73.90
4209;DHT22;36320;48.860;2.380;2023-04-15T11:04:55;15.10;74.00
4209;DHT22;36320;48.860;2.380;2023-04-15T11:12:57;15.30;72.30
4209;DHT22;36320;48.860;2.380;2023-04-15T11:15:33;15.00;72.60
4209;DHT22;36320;48.860;2.380;2023-04-15T11:18:16;15.20;73.30
4209;DHT22;36320;48.860;2.380;2023-04-15T11:20:56;15.20;72.80
4209;DHT22;36320;48.860;2.380;2023-04-15T11:26:03;15.40;73.00
4209;DHT22;36320;48.860;2.380;2023-04-15T11:28:35;15.20;72.70
4209;DHT22;36320;48.860;2.380;2023-04-15T11:31:15;15.00;73.20
4209;DHT22;36320;48.860;2.380;2023-04-15T11:33:59;14.80;73.50
4209;DHT22;36320;48.860;2.380;2023-04-15T11:36:29;15.00;73.50
4209;DHT22;36320;48.860;2.380;2023-04-15T11:38:57;14.80;73.40
4209;DHT22;36320;48.860;2.380;2023-04-15T11:41:23;14.90;73.90
4209;DHT22;36320;48.860;2.380;2023-04-15T11:43:50;15.00;73.80
4209;DHT22;36320;48.860;2.380;2023-04-15T11:46:16;15.00;73.80
4209;DHT22;36320;48.860;2.380;2023-04-15T11:48:44;15.30;74.20
4209;DHT22;36320;48.860;2.380;2023-04-15T11:51:10;15.00;73.40
4209;DHT22;36320;48.860;2.380;2023-04-15T11:53:48;14.70;73.80
4209;DHT22;36320;48.860;2.380;2023-04-15T11:56:19;14.70;73.80
4209;DHT22;36320;48.860;2.380;2023-04-15T11:58:47;14.30;73.70
4209;DHT22;36320;48.860;2.380;2023-04-15T12:01:15;14.50;74.50
4209;DHT22;36320;48.860;2.380;2023-04-15T12:03:45;14.80;74.40
4209;DHT22;36320;48.860;2.380;2023-04-15T12:06:19;15.00;74.20
4209;DHT22;36320;48.860;2.380;2023-04-15T12:08:55;15.00;73.70
4209;DHT22;36320;48.860;2.380;2023-04-15T12:11:29;14.90;73.60
4209;DHT22;36320;48.860;2.380;2023-04-15T12:16:28;15.10;73.20
4209;DHT22;36320;48.860;2.380;2023-04-15T12:18:57;15.10;73.40
4209;DHT22;36320;48.860;2.380;2023-04-15T12:21:27;15.10;73.40
4209;DHT22;36320;48.860;2.380;2023-04-15T12:24:01;15.10;73.50
4209;DHT22;36320;48.860;2.380;2023-04-15T12:29:14;15.10;72.80
4209;DHT22;36320;48.860;2.380;2023-04-15T12:32:03;15.20;72.50
4209;DHT22;36320;48.860;2.380;2023-04-15T12:37:04;15.20;71.90
4209;DHT22;36320;48.860;2.380;2023-04-15T12:39:34;15.20;71.30
4209;DHT22;36320;48.860;2.380;2023-04-15T12:42:00;15.30;71.20
4209;DHT22;36320;48.860;2.380;2023-04-15T12:44:26;15.10;71.10
4209;DHT22;36320;48.860;2.380;2023-04-15T12:46:52;15.10;71.50
4209;DHT22;36320;48.860;2.380;2023-04-15T12:49:20;15.00;71.20
4209;DHT22;36320;48.860;2.380;2023-04-15T12:51:52;14.90;72.10
4209;DHT22;36320;48.860;2.380;2023-04-15T12:54:18;14.90;71.40
4209;DHT22;36320;48.860;2.380;2023-04-15T12:56:44;15.00;71.50
4209;DHT22;36320;48.860;2.380;2023-04-15T12:59:13;15.10;71.70
4209;DHT22;36320;48.860;2.380;2023-04-15T13:01:39;15.40;71.40
4209;DHT22;36320;48.860;2.380;2023-04-15T13:04:05;15.40;70.60
4209;DHT22;36320;48.860;2.380;2023-04-15T13:06:31;15.10;69.90
4209;DHT22;36320;48.860;2.380;2023-04-15T13:09:00;15.30;70.30
4209;DHT22;36320;48.860;2.380;2023-04-15T13:11:26;15.30;70.30
4209;DHT22;36320;48.860;2.380;2023-04-15T13:13:55;15.40;70.30
4209;DHT22;36320;48.860;2.380;2023-04-15T13:16:22;15.40;70.00
4209;DHT22;36320;48.860;2.380;2023-04-15T13:18:48;15.60;69.70
4209;DHT22;36320;48.860;2.380;2023-04-15T13:21:18;15.80;69.40
4209;DHT22;36320;48.860;2.380;2023-04-15T13:23:49;17.10;70.20
4209;DHT22;36320;48.860;2.380;2023-04-15T13:26:18;16.50;68.70
4209;DHT22;36320;48.860;2.380;2023-04-15T13:28:44;16.60;68.10
4209;DHT22;36320;48.860;2.380;2023-04-15T13:31:10;16.40;67.50
4209;DHT22;36320;48.860;2.380;2023-04-15T13:33:37;16.20;67.20
4209;DHT22;36320;48.860;2.380;2023-04-15T13:36:03;16.00;67.00
4209;DHT22;36320;48.860;2.380;2023-04-15T13:38:30;16.00;67.30
4209;DHT22;36320;48.860;2.380;2023-04-15T13:40:56;16.30;67.10
4209;DHT22;36320;48.860;2.380;2023-04-15T13:43:22;16.70;66.60
4209;DHT22;36320;48.860;2.380;2023-04-15T13:45:48;17.00;65.60
4209;DHT22;36320;48.860;2.380;2023-04-15T13:48:14;17.20;65.80
4209;DHT22;36320;48.860;2.380;2023-04-15T13:50:40;17.30;65.30
4209;DHT22;36320;48.860;2.380;2023-04-15T13:53:12;17.50;65.20
4209;DHT22;36320;48.860;2.380;2023-04-15T13:55:38;17.70;65.00
4209;DHT22;36320;48.860;2.380;2023-04-15T13:58:10;17.60;65.10
4209;DHT22;36320;48.860;2.380;2023-04-15T14:00:38;17.80;64.80
4209;DHT22;36320;48.860;2.380;2023-04-15T14:03:04;17.90;64.10
4209;DHT22;36320;48.860;2.380;2023-04-15T14:05:30;17.70;63.00
4209;DHT22;36320;48.860;2.380;2023-04-15T14:07:58;17.80;63.80
4209;DHT22;36320;48.860;2.380;2023-04-15T14:10:24;18.00;63.40
4209;DHT22;36320;48.860;2.380;2023-04-15T14:12:50;17.90;62.90
4209;DHT22;36320;48.860;2.380;2023-04-15T14:15:16;18.00;62.70
4209;DHT22;36320;48.860;2.380;2023-04-15T14:17:42;18.30;62.60
4209;DHT22;36320;48.860;2.380;2023-04-15T14:20:08;18.10;62.00
4209;DHT22;36320;48.860;2.380;2023-04-15T14:22:34;18.10;62.40
4209;DHT22;36320;48.860;2.380;2023-04-15T14:25:00;18.10;62.30
4209;DHT22;36320;48.860;2.380;2023-04-15T14:27:26;18.00;62.30
4209;DHT22;36320;48.860;2.380;2023-04-15T14:29:52;18.20;61.60
4209;DHT22;36320;48.860;2.380;2023-04-15T14:32:18;18.40;61.80
4209;DHT22;36320;48.860;2.380;2023-04-15T14:34:44;18.50;61.50
4209;DHT22;36320;48.860;2.380;2023-04-15T14:37:10;18.80;61.20
4209;DHT22;36320;48.860;2.380;2023-04-15T14:39:36;19.00;61.00
4209;DHT22;36320;48.860;2.380;2023-04-15T14:42:02;19.40;60.80
4209;DHT22;36320;48.860;2.380;2023-04-15T14:44:28;19.80;60.10
4209;DHT22;36320;48.860;2.380;2023-04-15T14:46:54;20.30;59.70
4209;DHT22;36320;48.860;2.380;2023-04-15T14:49:22;20.50;58.60
4209;DHT22;36320;48.860;2.380;2023-04-15T14:51:48;20.60;58.70
4209;DHT22;36320;48.860;2.380;2023-04-15T14:54:14;20.50;57.90
4209;DHT22;36320;48.860;2.380;2023-04-15T14:56:41;20.60;57.90
4209;DHT22;36320;48.860;2.380;2023-04-15T14:59:07;20.60;57.50
4209;DHT22;36320;48.860;2.380;2023-04-15T15:01:34;20.60;57.30
4209;DHT22;36320;48.860;2.380;2023-04-15T15:04:00;20.10;57.10
4209;DHT22;36320;48.860;2.380;2023-04-15T15:06:26;19.40;57.90
4209;DHT22;36320;48.860;2.380;2023-04-15T15:08:52;19.10;58.50
4209;DHT22;36320;48.860;2.380;2023-04-15T15:11:19;19.30;59.00
4209;DHT22;36320;48.860;2.380;2023-04-15T15:13:51;19.40;58.20
4209;DHT22;36320;48.860;2.380;2023-04-15T15:16:18;19.20;57.60
4209;DHT22;36320;48.860;2.380;2023-04-15T15:18:44;19.20;57.60
4209;DHT22;36320;48.860;2.380;2023-04-15T15:21:10;19.10;57.60
4209;DHT22;36320;48.860;2.380;2023-04-15T15:23:37;18.70;57.50
4209;DHT22;36320;48.860;2.380;2023-04-15T15:26:03;19.20;57.90
4209;DHT22;36320;48.860;2.380;2023-04-15T15:28:29;19.00;57.80
4209;DHT22;36320;48.860;2.380;2023-04-15T15:30:55;18.80;58.20
4209;DHT22;36320;48.860;2.380;2023-04-15T15:33:21;18.60;58.60
4209;DHT22;36320;48.860;2.380;2023-04-15T15:35:47;18.80;59.40
4209;DHT22;36320;48.860;2.380;2023-04-15T15:38:12;19.50;59.60
4209;DHT22;36320;48.860;2.380;2023-04-15T15:40:38;20.50;58.90
4209;DHT22;36320;48.860;2.380;2023-04-15T15:43:04;22.00;56.80
4209;DHT22;36320;48.860;2.380;2023-04-15T15:45:30;22.40;54.50
4209;DHT22;36320;48.860;2.380;2023-04-15T15:47:56;23.10;53.50
4209;DHT22;36320;48.860;2.380;2023-04-15T15:50:23;22.50;52.50
4209;DHT22;36320;48.860;2.380;2023-04-15T15:52:49;24.50;52.80
4209;DHT22;36320;48.860;2.380;2023-04-15T15:55:15;24.40;49.80
4209;DHT22;36320;48.860;2.380;2023-04-15T15:57:41;23.00;50.30
4209;DHT22;36320;48.860;2.380;2023-04-15T16:00:07;22.40;51.70
4209;DHT22;36320;48.860;2.380;2023-04-15T16:02:34;26.60;49.70
4209;DHT22;36320;48.860;2.380;2023-04-15T16:05:01;30.20;43.40